Time;durP1;ratioP1;P1;durP2;ratioP2;P2;SDS_P1;SDS_P2;PMS_P1;PMS_P2;Temp;Humidity;BMP_temperature;BMP_pressure;BME280_temperature;BME280_humidity;BME280_pressure;Samples;Min_cycle;Max_cycle;Signal;HPM_P1;HPM_P2
2022/10/24 00:00:25;;;;;;;3.50;3.20;;;14.30;91.60;;;;;;5075100;28;20448;-76
2022/10/24 00:02:51;;;;;;;3.70;3.40;;;14.20;86.10;;;;;;5074228;28;20614;-75
2022/10/24 00:05:16;;;;;;;7.60;3.87;;;14.20;90.90;;;;;;5072475;28;20690;-74
2022/10/24 00:07:42;;;;;;;4.73;4.00;;;14.20;94.50;;;;;;5073680;28;20631;-72
2022/10/24 00:10:11;;;;;;;4.10;3.80;;;14.20;95.90;;;;;;5073400;28;20571;-72
2022/10/24 00:12:37;;;;;;;3.70;3.40;;;14.20;98.20;;;;;;5072755;28;20178;-74
2022/10/24 00:15:04;;;;;;;6.53;4.23;;;14.20;95.90;;;;;;5071886;28;20928;-71
2022/10/24 00:17:29;;;;;;;4.37;3.70;;;14.10;96.70;;;;;;5073161;28;20181;-75
2022/10/24 00:19:57;;;;;;;4.10;3.80;;;14.10;98.70;;;;;;5075406;28;20448;-71
2022/10/24 00:22:23;;;;;;;3.97;3.60;;;14.10;98.60;;;;;;5074548;28;20167;-72
2022/10/24 00:24:49;;;;;;;6.47;4.20;;;14.10;99.10;;;;;;5072480;28;20412;-73
2022/10/24 00:27:15;;;;;;;3.67;3.37;;;14.10;98.20;;;;;;5073990;28;20243;-74
2022/10/24 00:29:40;;;;;;;4.30;3.00;;;14.10;97.60;;;;;;5071749;28;20174;-72
2022/10/24 00:32:06;;;;;;;4.00;3.70;;;14.00;96.70;;;;;;5073306;28;20932;-75
2022/10/24 00:34:32;;;;;;;8.23;4.07;;;14.00;97.80;;;;;;5071520;28;20166;-71
2022/10/24 00:36:57;;;;;;;5.33;3.43;;;14.00;98.20;;;;;;5073180;28;20279;-75
2022/10/24 00:39:23;;;;;;;5.17;3.30;;;14.00;99.90;;;;;;5074306;28;20182;-72
2022/10/24 00:41:49;;;;;;;5.23;3.10;;;13.90;99.90;;;;;;5074022;28;20198;-73
2022/10/24 00:44:20;;;;;;;6.50;3.57;;;13.90;99.90;;;;;;5065276;28;20171;-71
2022/10/24 00:46:53;;;;;;;3.23;3.03;;;13.90;99.90;;;;;;5058586;28;20193;-76
2022/10/24 00:49:24;;;;;;;3.30;3.00;;;13.80;99.90;;;;;;5074652;28;20408;-73
2022/10/24 00:51:55;;;;;;;6.33;4.97;;;13.90;99.90;;;;;;5073991;28;20412;-76
2022/10/24 00:54:21;;;;;;;5.17;3.53;;;13.90;99.90;;;;;;5067275;28;20440;-74
2022/10/24 00:56:54;;;;;;;3.23;3.00;;;13.80;99.90;;;;;;5072541;28;20451;-75
2022/10/24 00:59:20;;;;;;;3.03;2.83;;;13.80;99.90;;;;;;5073798;28;20163;-75
2022/10/24 01:01:47;;;;;;;3.10;2.90;;;13.80;99.90;;;;;;5074705;28;20456;-71
2022/10/24 01:04:13;;;;;;;8.27;6.17;;;13.80;99.90;;;;;;5073249;28;20420;-72
2022/10/24 01:06:56;;;;;;;3.53;3.00;;;13.80;99.90;;;;;;5073415;28;20428;-72
2022/10/24 01:09:48;;;;;;;2.87;2.33;;;13.90;99.90;;;;;;5073863;28;20415;-74
2022/10/24 01:12:39;;;;;;;3.07;2.73;;;13.90;99.90;;;;;;5073023;28;20428;-74
2022/10/24 01:15:19;;;;;;;2.50;2.30;;;13.90;99.90;;;;;;5072550;28;20478;-73
2022/10/24 01:18:17;;;;;;;2.63;2.20;;;14.00;99.90;;;;;;5071116;28;20763;-74
2022/10/24 01:21:02;;;;;;;2.90;2.63;;;14.00;99.90;;;;;;5066711;28;20456;-73
2022/10/24 01:23:58;;;;;;;4.10;2.63;;;14.10;99.90;;;;;;5072077;28;21013;-74
2022/10/24 01:26:30;;;;;;;3.30;2.37;;;14.10;99.90;;;;;;5066906;28;20479;-75
2022/10/24 01:29:10;;;;;;;2.70;2.00;;;14.20;99.90;;;;;;5054142;28;20408;-71
2022/10/24 01:32:01;;;;;;;3.67;2.30;;;14.20;99.90;;;;;;5070096;28;20411;-74
2022/10/24 01:34:59;;;;;;;2.27;2.00;;;14.20;99.90;;;;;;5068891;28;20906;-75
2022/10/24 01:37:34;;;;;;;2.60;2.30;;;14.20;99.90;;;;;;5067151;28;20515;-72
2022/10/24 01:40:11;;;;;;;3.90;2.10;;;14.20;99.90;;;;;;5073764;28;20936;-72
2022/10/24 01:42:40;;;;;;;2.93;2.30;;;14.20;99.90;;;;;;5069153;28;20420;-74
2022/10/24 01:45:08;;;;;;;3.53;2.07;;;14.20;99.90;;;;;;5069153;28;20420;-75
2022/10/24 01:47:42;;;;;;;2.60;2.40;;;14.20;99.90;;;;;;5071822;28;20427;-72
2022/10/24 01:50:12;;;;;;;2.20;2.00;;;14.20;99.90;;;;;;5068413;28;20948;-72
2022/10/24 01:52:41;;;;;;;2.33;2.03;;;14.20;99.90;;;;;;5065694;28;20779;-74
2022/10/24 01:55:07;;;;;;;1.90;1.80;;;14.20;99.90;;;;;;5064343;28;20778;-72
2022/10/24 01:57:34;;;;;;;4.00;2.40;;;14.20;99.90;;;;;;5071893;28;20417;-72
2022/10/24 02:00:00;;;;;;;3.00;2.70;;;14.10;99.90;;;;;;5072535;28;20452;-72
2022/10/24 02:02:44;;;;;;;2.73;1.90;;;14.10;99.90;;;;;;5072158;28;20441;-71
2022/10/24 02:05:13;;;;;;;2.40;2.20;;;14.10;99.90;;;;;;5083211;28;20570;-71
2022/10/24 02:07:42;;;;;;;2.67;2.40;;;14.20;99.90;;;;;;5054213;28;20409;-75
2022/10/24 02:10:31;;;;;;;3.30;1.83;;;14.20;99.90;;;;;;5071881;28;20893;-73
2022/10/24 02:13:02;;;;;;;4.17;2.27;;;14.20;99.90;;;;;;5071811;28;20834;-75
2022/10/24 02:15:33;;;;;;;5.23;2.10;;;14.30;99.90;;;;;;5068329;28;20543;-76
2022/10/24 02:17:59;;;;;;;4.13;2.87;;;14.20;99.90;;;;;;5070555;28;20460;-74
2022/10/24 02:20:32;;;;;;;4.43;2.47;;;14.20;99.90;;;;;;5073255;28;21053;-75
2022/10/24 02:23:05;;;;;;;2.30;2.10;;;14.20;99.90;;;;;;5068157;28;20445;-74
2022/10/24 02:25:36;;;;;;;2.30;2.10;;;14.20;99.90;;;;;;5063376;28;20519;-71
2022/10/24 02:28:17;;;;;;;2.87;2.67;;;14.20;99.90;;;;;;5072047;28;20409;-76
2022/10/24 02:30:52;;;;;;;2.30;2.10;;;14.20;99.90;;;;;;5067652;28;20921;-75
2022/10/24 02:33:19;;;;;;;2.60;2.40;;;14.10;99.90;;;;;;5088111;28;20515;-78
2022/10/24 02:35:46;;;;;;;10.23;2.40;;;14.10;99.90;;;;;;5072457;28;20436;-76
2022/10/24 02:38:20;;;;;;;3.33;2.33;;;14.10;99.90;;;;;;5071672;28;20413;-76
2022/10/24 02:40:49;;;;;;;3.13;2.67;;;14.10;99.90;;;;;;5071799;28;20447;-75
2022/10/24 02:43:16;;;;;;;4.03;2.50;;;14.10;99.90;;;;;;5073240;28;20439;-75
2022/10/24 02:45:42;;;;;;;6.57;2.40;;;14.10;99.90;;;;;;5066470;28;20447;-74
2022/10/24 02:48:12;;;;;;;4.87;2.33;;;14.10;99.90;;;;;;5074831;28;20404;-74
2022/10/24 02:50:39;;;;;;;2.53;2.30;;;14.00;99.90;;;;;;5057068;28;20163;-72
2022/10/24 02:53:08;;;;;;;4.43;3.07;;;14.00;99.90;;;;;;5070967;28;20512;-71
2022/10/24 02:55:34;;;;;;;2.43;2.23;;;14.00;99.90;;;;;;5075647;28;20416;-75
2022/10/24 02:57:59;;;;;;;5.30;2.70;;;14.00;99.90;;;;;;5076156;28;20419;-73
2022/10/24 03:00:25;;;;;;;2.83;2.63;;;13.90;99.90;;;;;;5075366;28;20198;-75
2022/10/24 03:02:51;;;;;;;2.43;2.20;;;14.00;99.90;;;;;;5076601;28;20186;-75
2022/10/24 03:05:16;;;;;;;3.67;2.27;;;14.00;99.90;;;;;;5076009;28;20186;-71
2022/10/24 03:07:42;;;;;;;3.03;2.83;;;14.00;99.90;;;;;;5075673;28;20224;-75
2022/10/24 03:10:08;;;;;;;5.33;4.40;;;14.00;99.90;;;;;;5076732;28;20523;-72
2022/10/24 03:12:34;;;;;;;10.20;2.33;;;13.90;99.90;;;;;;5076310;28;20204;-75
2022/10/24 03:14:59;;;;;;;4.77;2.80;;;13.90;99.90;;;;;;5074412;28;20264;-71
2022/10/24 03:17:25;;;;;;;4.00;3.23;;;13.90;99.90;;;;;;5076221;28;20500;-71
2022/10/24 03:19:50;;;;;;;7.00;3.50;;;13.90;99.90;;;;;;5076501;28;20497;-75
2022/10/24 03:22:16;;;;;;;6.03;2.87;;;13.90;99.90;;;;;;5076232;28;20175;-74
2022/10/24 03:24:42;;;;;;;5.93;2.50;;;13.90;99.90;;;;;;5075556;28;20221;-75
2022/10/24 03:27:07;;;;;;;4.33;2.53;;;13.90;99.90;;;;;;5075944;28;20186;-75
2022/10/24 03:29:33;;;;;;;2.73;2.53;;;13.80;99.90;;;;;;5059036;28;20250;-71
2022/10/24 03:31:59;;;;;;;3.70;2.30;;;13.80;99.90;;;;;;5070337;28;20201;-75
2022/10/24 03:34:24;;;;;;;4.17;2.83;;;13.80;99.90;;;;;;5075337;28;20631;-76
2022/10/24 03:36:50;;;;;;;4.03;3.70;;;13.80;99.90;;;;;;5075933;28;20202;-71
2022/10/24 03:39:16;;;;;;;3.53;3.23;;;13.80;99.90;;;;;;5076345;28;20170;-76
2022/10/24 03:41:41;;;;;;;3.97;2.90;;;13.90;99.90;;;;;;5075919;28;20202;-74
2022/10/24 03:44:07;;;;;;;5.33;2.37;;;13.90;99.90;;;;;;5072924;28;20170;-75
2022/10/24 03:46:33;;;;;;;3.20;2.90;;;13.90;99.90;;;;;;5075653;28;20671;-73
2022/10/24 03:48:58;;;;;;;5.50;2.97;;;13.80;99.90;;;;;;5076013;28;20445;-71
2022/10/24 03:51:24;;;;;;;3.10;2.80;;;13.80;99.90;;;;;;5067905;28;20528;-71
2022/10/24 03:53:50;;;;;;;3.90;2.90;;;13.70;99.90;;;;;;5055093;28;20666;-72
2022/10/24 03:56:15;;;;;;;5.57;2.60;;;13.70;99.90;;;;;;5061615;28;20686;-75
2022/10/24 03:58:41;;;;;;;4.07;3.17;;;13.70;99.90;;;;;;5073315;28;20661;-72
2022/10/24 04:01:09;;;;;;;5.20;2.80;;;13.70;99.90;;;;;;5075532;28;20747;-71
2022/10/24 04:03:34;;;;;;;3.40;3.10;;;13.70;99.90;;;;;;5075555;28;20251;-72
2022/10/24 04:06:00;;;;;;;3.40;3.10;;;13.70;99.90;;;;;;5074791;28;20505;-75
2022/10/24 04:08:26;;;;;;;3.43;3.10;;;13.70;99.90;;;;;;5073884;28;20217;-76
2022/10/24 04:10:51;;;;;;;5.43;2.90;;;13.70;99.90;;;;;;5075463;28;20173;-71
2022/10/24 04:13:17;;;;;;;4.63;2.80;;;13.60;99.90;;;;;;5074397;28;20657;-75
2022/10/24 04:15:43;;;;;;;4.83;2.93;;;13.60;99.90;;;;;;5074559;28;20613;-71
2022/10/24 04:18:08;;;;;;;4.70;2.70;;;13.60;99.90;;;;;;5075315;28;20597;-76
2022/10/24 04:20:34;;;;;;;3.37;3.07;;;13.60;99.90;;;;;;5075456;28;20574;-76
2022/10/24 04:23:00;;;;;;;4.30;3.00;;;13.60;99.90;;;;;;5074581;28;20172;-75
2022/10/24 04:25:26;;;;;;;4.10;3.80;;;13.60;99.90;;;;;;5068628;28;20445;-75
2022/10/24 04:27:51;;;;;;;6.27;3.40;;;13.50;99.90;;;;;;5070560;28;20173;-71
2022/10/24 04:30:17;;;;;;;11.50;3.43;;;13.50;99.90;;;;;;5075094;28;20504;-75
2022/10/24 04:32:43;;;;;;;3.30;3.00;;;13.50;99.90;;;;;;5074765;28;20190;-71
2022/10/24 04:35:09;;;;;;;5.80;3.23;;;13.50;99.90;;;;;;5074216;28;20198;-72
2022/10/24 04:37:34;;;;;;;7.33;3.40;;;13.50;99.90;;;;;;5075011;28;20456;-71
2022/10/24 04:40:00;;;;;;;4.60;3.13;;;13.60;99.90;;;;;;5073755;28;20179;-72
2022/10/24 04:42:26;;;;;;;6.30;3.13;;;13.50;99.90;;;;;;5074465;28;20546;-71
2022/10/24 04:44:51;;;;;;;5.03;2.60;;;13.50;99.90;;;;;;5073604;28;20512;-76
2022/10/24 04:47:17;;;;;;;3.30;2.93;;;13.50;99.90;;;;;;5074250;28;20214;-76
2022/10/24 04:49:43;;;;;;;5.53;3.00;;;13.50;99.90;;;;;;5075185;28;20170;-75
2022/10/24 04:52:09;;;;;;;4.63;2.80;;;13.50;99.90;;;;;;5074534;28;20178;-71
2022/10/24 04:54:35;;;;;;;5.87;3.57;;;13.50;99.90;;;;;;5071253;28;20732;-78
2022/10/24 04:57:00;;;;;;;2.73;2.53;;;13.50;99.90;;;;;;5059717;28;20436;-77
2022/10/24 04:59:26;;;;;;;3.43;2.83;;;13.50;99.90;;;;;;5074622;28;20205;-78
2022/10/24 05:01:53;;;;;;;3.73;3.10;;;13.50;99.90;;;;;;5074402;28;20205;-74
2022/10/24 05:04:19;;;;;;;2.90;2.70;;;13.50;99.90;;;;;;5072129;28;20177;-73
2022/10/24 05:06:45;;;;;;;3.30;2.93;;;13.50;99.90;;;;;;5066051;28;20468;-75
2022/10/24 05:09:12;;;;;;;4.43;3.27;;;13.50;99.90;;;;;;5073758;28;20390;-71
2022/10/24 05:11:38;;;;;;;4.80;2.80;;;13.50;99.90;;;;;;5067960;28;20386;-75
2022/10/24 05:14:03;;;;;;;4.30;3.27;;;13.50;99.90;;;;;;5064393;28;20432;-70
2022/10/24 05:16:29;;;;;;;5.87;3.50;;;13.40;99.90;;;;;;5076316;28;20289;-72
2022/10/24 05:18:55;;;;;;;4.40;3.20;;;13.40;99.90;;;;;;5068655;28;20326;-73
2022/10/24 05:21:20;;;;;;;4.53;3.90;;;13.40;99.90;;;;;;5054054;28;20199;-75
2022/10/24 05:23:46;;;;;;;4.50;3.17;;;13.40;99.90;;;;;;5067968;28;20181;-75
2022/10/24 05:26:12;;;;;;;3.50;3.20;;;13.40;99.90;;;;;;5073220;28;20194;-71
2022/10/24 05:28:37;;;;;;;3.60;3.30;;;13.40;99.90;;;;;;5074193;28;20193;-73
2022/10/24 05:31:03;;;;;;;5.17;3.07;;;13.40;99.90;;;;;;5062838;28;20210;-72
2022/10/24 05:33:29;;;;;;;3.33;3.03;;;13.40;99.90;;;;;;5053714;28;20167;-75
2022/10/24 05:35:55;;;;;;;3.33;3.03;;;13.40;99.90;;;;;;5062362;28;20490;-71
2022/10/24 05:38:21;;;;;;;3.53;2.93;;;13.30;99.90;;;;;;5063623;28;20524;-71
2022/10/24 05:40:48;;;;;;;6.00;3.87;;;13.40;99.90;;;;;;5061168;28;20466;-72
2022/10/24 05:43:15;;;;;;;6.50;2.80;;;13.40;99.90;;;;;;5073662;28;20408;-72
2022/10/24 05:45:41;;;;;;;4.77;3.17;;;13.30;99.90;;;;;;5071206;28;20432;-71
2022/10/24 05:48:07;;;;;;;7.07;4.07;;;13.40;99.90;;;;;;5073793;28;20485;-71
2022/10/24 05:50:33;;;;;;;4.17;3.20;;;13.40;99.90;;;;;;5072305;28;20486;-74
2022/10/24 05:52:59;;;;;;;4.67;3.10;;;13.40;99.90;;;;;;5073729;28;20393;-74
2022/10/24 05:55:25;;;;;;;7.10;3.30;;;13.30;99.90;;;;;;5072303;28;20514;-75
2022/10/24 05:57:50;;;;;;;4.67;3.53;;;13.40;99.90;;;;;;5072994;28;20397;-71
2022/10/24 06:00:17;;;;;;;5.60;3.50;;;13.30;99.90;;;;;;5072261;28;20608;-71
2022/10/24 06:02:43;;;;;;;4.83;3.73;;;13.30;99.90;;;;;;5073518;28;20642;-72
2022/10/24 06:05:10;;;;;;;7.07;3.10;;;13.30;99.90;;;;;;5072591;28;20401;-72
2022/10/24 06:07:36;;;;;;;8.80;3.80;;;13.30;99.90;;;;;;5053158;28;20925;-74
2022/10/24 06:10:04;;;;;;;4.30;2.93;;;13.30;99.90;;;;;;5053563;28;20394;-72
2022/10/24 06:12:30;;;;;;;4.07;3.47;;;13.30;99.90;;;;;;5053614;28;20805;-71
2022/10/24 06:14:57;;;;;;;5.50;3.13;;;13.30;99.90;;;;;;5052508;28;20390;-73
2022/10/24 06:17:23;;;;;;;7.67;3.50;;;13.30;99.90;;;;;;5052993;28;20173;-71
2022/10/24 06:19:49;;;;;;;7.13;3.67;;;13.30;99.90;;;;;;5061463;28;20547;-72
2022/10/24 06:22:16;;;;;;;3.67;3.37;;;13.30;99.90;;;;;;5072894;28;20185;-72
2022/10/24 06:24:41;;;;;;;7.13;3.30;;;13.30;99.90;;;;;;5071412;28;20436;-71
2022/10/24 06:27:07;;;;;;;5.30;3.70;;;13.30;99.90;;;;;;5073289;28;20473;-71
2022/10/24 06:29:33;;;;;;;3.10;2.90;;;13.20;99.90;;;;;;5073381;28;20191;-73
2022/10/24 06:31:58;;;;;;;4.43;3.50;;;13.20;99.90;;;;;;5073264;28;20170;-72
2022/10/24 06:34:24;;;;;;;3.20;3.00;;;13.30;99.90;;;;;;5072427;28;20170;-74
2022/10/24 06:36:50;;;;;;;5.43;3.70;;;13.30;99.90;;;;;;5071466;28;20190;-74
2022/10/24 06:39:16;;;;;;;4.33;3.53;;;13.30;99.90;;;;;;5053377;28;20917;-73
2022/10/24 06:41:41;;;;;;;3.83;3.07;;;13.30;99.90;;;;;;5052901;28;20532;-73
2022/10/24 06:44:07;;;;;;;4.13;3.40;;;13.40;99.90;;;;;;5052175;28;20170;-74
2022/10/24 06:46:32;;;;;;;4.60;3.80;;;13.30;99.90;;;;;;5052858;28;20671;-74
2022/10/24 06:48:58;;;;;;;3.90;3.60;;;13.40;99.90;;;;;;5053172;28;20167;-74
2022/10/24 06:51:24;;;;;;;11.47;3.57;;;13.30;99.90;;;;;;5054209;28;20202;-71
2022/10/24 06:53:50;;;;;;;4.07;3.50;;;13.40;99.90;;;;;;5071728;28;20157;-75
2022/10/24 06:56:17;;;;;;;7.70;3.97;;;13.40;99.90;;;;;;5072759;28;20399;-73
2022/10/24 06:58:43;;;;;;;4.40;3.17;;;13.40;99.90;;;;;;5073170;28;20158;-71
2022/10/24 07:01:14;;;;;;;9.57;3.60;;;13.40;99.90;;;;;;5072906;28;20472;-74
2022/10/24 07:03:41;;;;;;;4.30;3.23;;;13.40;99.90;;;;;;5071852;28;20435;-72
2022/10/24 07:06:16;;;;;;;6.93;3.37;;;13.40;99.90;;;;;;5071312;28;20467;-75
2022/10/24 07:08:42;;;;;;;8.60;3.53;;;13.50;99.90;;;;;;5073098;28;20389;-73
2022/10/24 07:11:08;;;;;;;5.40;3.33;;;13.50;99.90;;;;;;5071979;28;20401;-74
2022/10/24 07:13:33;;;;;;;8.90;3.80;;;13.50;99.90;;;;;;5072438;28;20516;-73
2022/10/24 07:15:59;;;;;;;15.17;3.27;;;13.50;99.90;;;;;;5072103;28;20213;-72
2022/10/24 07:18:25;;;;;;;6.37;3.47;;;13.60;99.90;;;;;;5072889;28;20204;-74
2022/10/24 07:20:51;;;;;;;5.63;3.00;;;13.60;99.90;;;;;;5071028;28;20328;-74
2022/10/24 07:23:17;;;;;;;10.53;4.67;;;13.70;99.90;;;;;;5072801;28;20397;-73
2022/10/24 07:25:43;;;;;;;7.00;3.43;;;13.70;99.90;;;;;;5071625;28;20455;-71
2022/10/24 07:28:10;;;;;;;4.43;3.17;;;13.80;99.90;;;;;;5072811;28;20901;-74
2022/10/24 07:30:38;;;;;;;5.43;3.00;;;13.80;99.90;;;;;;5072454;28;20175;-73
2022/10/24 07:33:04;;;;;;;4.83;3.33;;;13.80;99.90;;;;;;5072642;28;20504;-73
2022/10/24 07:35:30;;;;;;;4.43;2.80;;;13.90;99.90;;;;;;5069638;28;20449;-73
2022/10/24 07:37:56;;;;;;;7.50;4.73;;;13.90;99.90;;;;;;5056292;28;20394;-71
2022/10/24 07:40:22;;;;;;;4.73;3.30;;;14.00;99.90;;;;;;5068721;28;20197;-74
2022/10/24 07:42:47;;;;;;;7.00;3.67;;;14.00;99.90;;;;;;5076419;28;20222;-74
2022/10/24 07:45:13;;;;;;;3.37;2.70;;;14.00;99.90;;;;;;5074926;28;20200;-73
2022/10/24 07:47:39;;;;;;;5.57;3.10;;;14.10;99.90;;;;;;5074884;28;20248;-73
2022/10/24 07:50:05;;;;;;;4.57;3.10;;;14.10;99.90;;;;;;5075439;28;20478;-74
2022/10/24 07:52:31;;;;;;;4.70;3.03;;;14.20;99.90;;;;;;5075905;28;20171;-71
2022/10/24 07:54:57;;;;;;;5.00;2.57;;;14.30;99.90;;;;;;5074909;28;20732;-72
2022/10/24 07:57:23;;;;;;;3.60;3.30;;;14.30;99.90;;;;;;5075925;28;20190;-74
2022/10/24 07:59:49;;;;;;;5.87;3.07;;;14.40;99.90;;;;;;5075596;28;20178;-72
2022/10/24 08:02:16;;;;;;;4.90;3.20;;;14.50;99.90;;;;;;5074489;28;20431;-74
2022/10/24 08:04:42;;;;;;;3.10;2.90;;;14.50;99.90;;;;;;5074537;28;20235;-75
2022/10/24 08:07:12;;;;;;;3.97;2.90;;;14.60;99.90;;;;;;5075298;28;20417;-71
2022/10/24 08:09:42;;;;;;;7.10;3.10;;;14.70;99.90;;;;;;5075329;28;20462;-74
2022/10/24 08:12:08;;;;;;;4.90;3.53;;;14.80;99.90;;;;;;5074403;28;20397;-72
2022/10/24 08:14:36;;;;;;;4.73;2.80;;;14.90;99.90;;;;;;5057192;28;20945;-74
2022/10/24 08:17:03;;;;;;;8.30;3.40;;;15.00;90.60;;;;;;5055360;28;20468;-77
2022/10/24 08:19:29;;;;;;;4.80;2.73;;;15.10;83.50;;;;;;5074383;28;20830;-71
2022/10/24 08:21:55;;;;;;;3.90;3.00;;;15.20;73.20;;;;;;5075416;28;21046;-72
2022/10/24 08:24:21;;;;;;;5.57;2.93;;;15.30;37.60;;;;;;5073889;28;20504;-74
2022/10/24 08:26:47;;;;;;;4.37;2.70;;;15.40;13.50;;;;;;5074165;28;20198;-75
2022/10/24 08:29:14;;;;;;;7.63;2.70;;;15.50;1.00;;;;;;5072338;28;20178;-73
2022/10/24 08:31:40;;;;;;;5.30;2.53;;;15.50;1.00;;;;;;5075314;28;20408;-73
2022/10/24 08:34:06;;;;;;;5.80;2.90;;;15.60;1.00;;;;;;5073984;28;20420;-75
2022/10/24 08:36:35;;;;;;;3.30;2.93;;;15.70;1.00;;;;;;5075170;28;20830;-73
2022/10/24 08:39:01;;;;;;;5.30;3.27;;;15.80;1.00;;;;;;5074269;28;20454;-72
2022/10/24 08:41:35;;;;;;;6.43;2.90;;;15.90;1.00;;;;;;5085007;28;20460;-74
2022/10/24 08:44:03;;;;;;;4.33;2.63;;;15.90;1.00;;;;;;5066664;28;20425;-73
2022/10/24 08:46:49;;;;;;;2.93;2.20;;;16.00;1.00;;;;;;5074293;28;20428;-73
2022/10/24 08:49:29;;;;;;;3.27;2.97;;;16.00;1.00;;;;;;5073923;28;20432;-71
2022/10/24 08:52:06;;;;;;;13.33;3.70;;;16.10;1.00;;;;;;5074816;28;20893;-73
2022/10/24 08:54:38;;;;;;;3.20;2.37;;;16.20;1.00;;;;;;5073619;28;20436;-73
2022/10/24 08:57:06;;;;;;;3.33;2.50;;;16.30;1.00;;;;;;5073642;28;20513;-77
2022/10/24 08:59:35;;;;;;;6.97;2.57;;;16.40;1.00;;;;;;5069319;28;20429;-74
2022/10/24 09:02:22;;;;;;;4.50;2.50;;;16.50;1.00;;;;;;5054576;28;20510;-74
2022/10/24 09:05:16;;;;;;;7.63;2.80;;;16.60;1.00;;;;;;5053152;28;20426;-74
2022/10/24 09:07:45;;;;;;;7.70;2.80;;;16.70;1.00;;;;;;5047520;28;20915;-74
2022/10/24 09:10:31;;;;;;;4.10;3.07;;;16.80;99.90;;;;;;5073349;28;20481;-72
2022/10/24 09:12:57;;;;;;;4.90;3.30;;;16.80;99.90;;;;;;5072608;28;20428;-75
2022/10/24 09:15:30;;;;;;;5.70;2.80;;;16.90;99.90;;;;;;5072418;28;20452;-72
2022/10/24 09:17:57;;;;;;;4.83;2.43;;;17.00;99.90;;;;;;5073946;28;20500;-73
2022/10/24 09:20:29;;;;;;;2.80;2.33;;;17.10;99.90;;;;;;5074259;28;20448;-73
2022/10/24 09:22:58;;;;;;;3.70;2.80;;;17.20;99.90;;;;;;5073460;28;20405;-74
2022/10/24 09:25:30;;;;;;;5.73;3.40;;;17.30;99.90;;;;;;5071967;28;20436;-74
2022/10/24 09:28:05;;;;;;;2.63;2.00;;;17.40;99.90;;;;;;5072197;28;20413;-76
2022/10/24 09:30:31;;;;;;;6.60;2.37;;;17.40;99.90;;;;;;5074060;28;20442;-73
2022/10/24 09:32:59;;;;;;;5.40;2.70;;;17.50;99.90;;;;;;5073490;28;20940;-75
2022/10/24 09:35:28;;;;;;;4.83;2.80;;;17.60;99.90;;;;;;5073040;28;20903;-76
2022/10/24 09:38:18;;;;;;;2.20;1.80;;;17.80;99.90;;;;;;5071272;28;20424;-73
2022/10/24 09:40:50;;;;;;;8.40;2.47;;;17.80;99.90;;;;;;5073583;28;20456;-75
2022/10/24 09:43:21;;;;;;;5.07;2.63;;;17.70;99.90;;;;;;5073609;28;20428;-73
2022/10/24 09:45:59;;;;;;;4.80;2.13;;;17.60;99.90;;;;;;5073084;28;20499;-72
2022/10/24 09:48:54;;;;;;;9.10;2.67;;;17.60;99.90;;;;;;5069005;28;20425;-72
2022/10/24 09:51:33;;;;;;;4.40;1.87;;;17.50;99.90;;;;;;5069134;28;20452;-70
2022/10/24 09:54:05;;;;;;;12.30;2.03;;;17.60;99.90;;;;;;5066357;28;20936;-73
2022/10/24 09:56:38;;;;;;;3.67;2.13;;;17.60;99.90;;;;;;5071740;28;20515;-73
2022/10/24 09:59:25;;;;;;;2.50;2.30;;;17.70;99.90;;;;;;5073197;28;20420;-73
2022/10/24 10:01:51;;;;;;;2.27;2.07;;;17.80;99.90;;;;;;5073520;28;20456;-74
2022/10/24 10:04:18;;;;;;;5.80;2.10;;;17.90;99.90;;;;;;5072345;28;20788;-70
2022/10/24 10:06:46;;;;;;;1.83;1.70;;;18.00;99.90;;;;;;5072295;28;20236;-75
2022/10/24 10:09:14;;;;;;;2.80;2.10;;;18.20;99.90;;;;;;5073312;28;20435;-72
2022/10/24 10:11:41;;;;;;;3.83;3.07;;;18.40;99.90;;;;;;5073332;28;20405;-74
2022/10/24 10:14:22;;;;;;;5.13;2.50;;;18.50;95.50;;;;;;5071842;28;20448;-68
2022/10/24 10:16:59;;;;;;;5.27;2.77;;;18.50;95.10;;;;;;5073424;28;20420;-73
2022/10/24 10:19:25;;;;;;;4.63;1.70;;;18.50;95.00;;;;;;5073234;28;20462;-71
2022/10/24 10:22:01;;;;;;;4.73;2.20;;;18.50;94.40;;;;;;5071058;28;20463;-70
2022/10/24 10:24:27;;;;;;;4.07;1.80;;;18.50;95.10;;;;;;5070815;28;20932;-75
2022/10/24 10:26:52;;;;;;;3.90;2.00;;;18.50;91.00;;;;;;5072031;28;20507;-72
2022/10/24 10:29:18;;;;;;;3.80;2.00;;;18.50;81.20;;;;;;5068831;28;20212;-70
2022/10/24 10:31:47;;;;;;;2.90;1.77;;;18.50;79.60;;;;;;5052624;28;20627;-76
2022/10/24 10:34:39;;;;;;;3.53;2.27;;;18.50;80.20;;;;;;5063981;28;20178;-76
2022/10/24 10:37:25;;;;;;;2.63;1.90;;;18.50;80.80;;;;;;5073224;28;20929;-73
2022/10/24 10:39:51;;;;;;;2.30;1.43;;;18.60;69.30;;;;;;5072918;28;20448;-73
2022/10/24 10:42:22;;;;;;;1.87;1.50;;;18.70;74.30;;;;;;5071926;28;20494;-73
2022/10/24 10:44:54;;;;;;;3.53;1.90;;;18.70;80.10;;;;;;5070776;28;20182;-72
2022/10/24 10:47:22;;;;;;;3.13;1.63;;;18.70;69.80;;;;;;5073224;28;20431;-74
2022/10/24 10:49:54;;;;;;;6.80;1.60;;;18.70;75.20;;;;;;5053631;28;20429;-75
2022/10/24 10:52:29;;;;;;;1.93;1.70;;;18.90;65.60;;;;;;5072886;28;20429;-73
2022/10/24 10:55:06;;;;;;;3.80;1.83;;;19.00;40.10;;;;;;5071843;28;20404;-75
2022/10/24 10:57:43;;;;;;;3.57;1.90;;;19.10;39.90;;;;;;5072845;28;20492;-76
2022/10/24 11:00:14;;;;;;;1.77;1.67;;;19.10;35.50;;;;;;5052806;28;20492;-73
2022/10/24 11:03:00;;;;;;;4.70;1.40;;;19.10;21.50;;;;;;5067131;28;20535;-74
2022/10/24 11:06:12;;;;;;;4.90;2.07;;;18.90;16.40;;;;;;5070571;28;20470;-75
2022/10/24 11:08:47;;;;;;;5.00;1.83;;;19.00;14.90;;;;;;5032327;28;20422;-73
2022/10/24 11:11:22;;;;;;;5.40;2.20;;;18.90;10.80;;;;;;5055124;28;20424;-72
2022/10/24 11:14:12;;;;;;;12.20;1.80;;;19.00;4.70;;;;;;5074522;28;20419;-73
2022/10/24 11:16:38;;;;;;;1.67;1.40;;;19.10;16.50;;;;;;5075648;28;20460;-71
2022/10/24 11:19:32;;;;;;;6.50;2.50;;;19.10;1.00;;;;;;5075943;28;20886;-76
2022/10/24 11:22:02;;;;;;;2.23;1.73;;;19.00;1.00;;;;;;5074407;28;20836;-75
2022/10/24 11:24:35;;;;;;;3.83;3.50;;;18.90;1.00;;;;;;5074597;28;20936;-71
2022/10/24 11:27:20;;;;;;;2.87;1.70;;;18.80;1.00;;;;;;5076250;28;20440;-72
2022/10/24 11:30:06;;;;;;;6.70;2.23;;;18.70;1.00;;;;;;5075353;28;20428;-72
2022/10/24 11:32:43;;;;;;;4.20;1.83;;;18.70;1.00;;;;;;5076130;28;20488;-74
2022/10/24 11:35:27;;;;;;;6.07;2.27;;;18.80;1.00;;;;;;5074410;28;20900;-74
2022/10/24 11:38:06;;;;;;;3.37;1.80;;;18.90;1.00;;;;;;5071477;28;20508;-75
2022/10/24 11:40:33;;;;;;;3.60;1.67;;;19.00;1.00;;;;;;5055937;28;20998;-72
2022/10/24 11:43:23;;;;;;;4.33;1.90;;;19.00;1.00;;;;;;5065935;28;20424;-74
2022/10/24 11:46:04;;;;;;;4.60;1.90;;;18.90;1.00;;;;;;5071005;28;20417;-75
2022/10/24 11:48:36;;;;;;;7.67;2.30;;;18.80;1.00;;;;;;5071656;28;20427;-74
2022/10/24 11:51:20;;;;;;;5.00;2.07;;;18.60;1.00;;;;;;5076151;28;20496;-74
2022/10/24 11:54:03;;;;;;;4.57;2.40;;;18.40;1.00;;;;;;5074758;28;20431;-72
2022/10/24 11:56:43;;;;;;;3.63;1.90;;;18.30;1.00;;;;;;5075335;28;21003;-74
2022/10/24 11:59:34;;;;;;;2.23;1.73;;;18.20;1.00;;;;;;5074473;28;20428;-74
2022/10/24 12:02:20;;;;;;;3.63;1.87;;;18.10;1.00;;;;;;5075212;28;20447;-74
2022/10/24 12:05:04;;;;;;;1.77;1.67;;;18.00;1.00;;;;;;5069694;28;20429;-75
2022/10/24 12:07:57;;;;;;;2.77;1.60;;;18.00;1.00;;;;;;5059759;28;20421;-74
2022/10/24 12:10:58;;;;;;;3.93;1.70;;;18.00;1.00;;;;;;5054502;28;20413;-77
2022/10/24 12:13:49;;;;;;;2.37;2.17;;;17.90;1.00;;;;;;5070482;28;20423;-73
2022/10/24 12:16:35;;;;;;;5.13;1.73;;;18.00;1.00;;;;;;5060040;28;20976;-73
2022/10/24 12:19:10;;;;;;;4.57;1.80;;;17.90;1.10;;;;;;5053939;28;20478;-74
2022/10/24 12:21:44;;;;;;;3.37;1.90;;;17.90;1.00;;;;;;5057826;28;20451;-73
2022/10/24 12:24:31;;;;;;;13.90;2.53;;;17.80;1.10;;;;;;5074717;28;21022;-75
2022/10/24 12:27:29;;;;;;;1.73;1.37;;;17.80;2.20;;;;;;5073701;28;20542;-74
2022/10/24 12:30:05;;;;;;;1.90;1.70;;;17.70;8.30;;;;;;5061168;28;20528;-72
2022/10/24 12:32:40;;;;;;;5.33;1.87;;;17.70;10.80;;;;;;5064590;28;20478;-74
2022/10/24 12:35:48;;;;;;;5.90;2.80;;;17.70;1.00;;;;;;5074270;28;20408;-74
2022/10/24 12:38:17;;;;;;;5.50;1.60;;;17.70;3.00;;;;;;5063211;28;20424;-76
2022/10/24 12:41:04;;;;;;;2.83;2.00;;;17.60;9.60;;;;;;5075035;28;20782;-73
2022/10/24 12:43:38;;;;;;;2.20;1.80;;;17.60;1.00;;;;;;5064514;28;20439;-71
2022/10/24 12:46:13;;;;;;;7.53;1.87;;;17.60;1.00;;;;;;5054990;28;20807;-75
2022/10/24 12:48:41;;;;;;;3.40;1.60;;;17.60;1.00;;;;;;5054932;28;20405;-76
2022/10/24 12:51:25;;;;;;;1.73;1.60;;;17.70;10.70;;;;;;5055123;28;20447;-75
2022/10/24 12:54:12;;;;;;;4.93;1.90;;;17.80;13.40;;;;;;5053917;28;20406;-73
2022/10/24 12:56:50;;;;;;;6.07;3.30;;;17.80;1.00;;;;;;5055106;28;20842;-73
2022/10/24 12:59:19;;;;;;;6.17;2.17;;;17.80;1.00;;;;;;5054811;28;20937;-73
2022/10/24 13:01:47;;;;;;;5.63;2.37;;;17.90;1.00;;;;;;5054873;28;20931;-70
2022/10/24 13:04:47;;;;;;;10.67;2.50;;;17.80;1.00;;;;;;5053400;28;20902;-74
2022/10/24 13:07:31;;;;;;;14.47;2.70;;;17.90;1.00;;;;;;5053492;28;20918;-72